Flight Track Log - Related Links

Times and Time Zones

All times are in EDT time to prevent confusion due to time zone crossing. See the EJA727 flight status page for this flight to view local times or setup timezone preferences in your user account.

Time Position Orientation Groundspeed Altitude Reporting Facility
EDT Latitude Longitude Course Direction KTS MPH feet Rate Location/Type
Tue 04:11:44 PM 33.8333 -84.3667 248° West 221 254 3,800  Level Atlanta TRACON
Tue 04:12:44 PM 33.9000 -84.3667 360° North 231 266 6,900 2,350 Climbing Atlanta TRACON
Tue 04:13:44 PM 33.9667 -84.3500 12° North 248 285 8,500 2,050 Climbing Atlanta TRACON
Tue 04:14:44 PM 34.0500 -84.3333 North 310 357 11,000 904 Climbing Atlanta TRACON
Tue 04:16:00 PM 34.2275 -84.2931 12° North  Level FlightAware Approximate
Tue 04:16:30 PM 34.2072 -84.3075 North 367 422 11,000  Level Atlanta Center
Tue 04:17:30 PM 34.3033 -84.2978 North 347 399 11,000 -50 Level Atlanta Center
Tue 04:18:30 PM 34.3994 -84.2753 11° North 347 399 10,900 -50 Descending Atlanta Center
Tue 04:19:30 PM 34.5036 -84.2506 11° North 347 399 10,900  Level Atlanta Center
Tue 04:20:30 PM 34.6039 -84.2533 359° North 352 405 10,900  Level Atlanta Center
Tue 04:21:30 PM 34.6997 -84.2839 345° North 352 405 10,900  Level Atlanta Center
Tue 04:22:30 PM 34.7978 -84.3144 346° North 359 413 10,900  Level Atlanta Center
Tue 04:23:30 PM 34.8894 -84.3453 345° North 354 407 10,900  Level Atlanta Center
Tue 04:24:30 PM 34.9814 -84.3783 344° North 354 407 10,900  Level Atlanta Center
Tue 04:25:30 PM 35.0750 -84.4119 344° North 349 402 10,900  Level Atlanta Center
Tue 04:26:30 PM 35.1731 -84.4428 346° North 349 402 10,900 50 Level Atlanta Center
Tue 04:27:30 PM 35.2628 -84.4764 343° North 349 402 11,000 50 Climbing Atlanta Center
Tue 04:28:30 PM 35.3544 -84.5072 345° North 343 395 11,000  Level Atlanta Center
Tue 04:29:30 PM 35.4461 -84.5053 North 327 376 11,000 -550 Level Atlanta Center
Tue 04:30:30 PM 35.5069 -84.4267 46° Northeast 287 330 9,900 -1,100 Descending Atlanta Center
Tue 04:31:30 PM 35.5531 -84.3475 54° Northeast 282 325 8,800 -1,300 Descending Atlanta Center
Tue 04:32:30 PM 35.5969 -84.2636 57° Northeast 276 318 7,300 -850 Descending Atlanta Center
Tue 04:33:30 PM 35.6431 -84.1819 55° Northeast 281 323 7,100 -100 Descending Atlanta Center
Tue 04:34:30 PM 35.6892 -84.1000 55° Northeast 286 329 7,100  Level Atlanta Center
Tue 04:35:30 PM 35.7328 -84.0183 57° Northeast 286 329 7,100  Level Atlanta Center
Tue 04:37:00 PM 35.8000 -83.9833 51° Northeast  Level FlightAware Approximate
Tue 04:44:00 PM 35.8110 -83.9940 51° Northeast  Level Estimated
Tue 04:45:00 PM 35.8110 -83.9940 51° Northeast  Level Estimated
Tue 04:46:00 PM 35.8110 -83.9940 51° Northeast  Level Estimated
Tue 04:47:00 PM 35.8110 -83.9940 51° Northeast  Level Estimated

Login

Don't have an account? Register now (free) for customized features, flight alerts, and more!